Time;durP1;ratioP1;P1;durP2;ratioP2;P2;SDS_P1;SDS_P2;PMS_P1;PMS_P2;Temp;Humidity;BMP_temperature;BMP_pressure;BME280_temperature;BME280_humidity;BME280_pressure;Samples;Min_cycle;Max_cycle;Signal;HPM_P1;HPM_P2
2022/04/13 00:02:00;;;;;;;10.13;3.85;;;;;;;13.11;72.08;100919.94;5025810;28;20490;-78
2022/04/13 00:04:25;;;;;;;12.82;3.78;;;;;;;13.07;71.63;100923.03;5026933;28;20031;-78
2022/04/13 00:06:51;;;;;;;9.30;4.68;;;;;;;13.03;71.68;100922.56;5028086;28;20029;-78
2022/04/13 00:09:16;;;;;;;9.02;3.05;;;;;;;12.99;71.77;100916.88;5030705;28;20497;-78
2022/04/13 00:11:42;;;;;;;9.63;3.38;;;;;;;12.95;71.94;100920.81;5060207;28;20216;-78
2022/04/13 00:14:07;;;;;;;9.10;3.60;;;;;;;12.92;72.27;100923.78;5041704;28;20055;-77
2022/04/13 00:16:33;;;;;;;9.73;3.85;;;;;;;12.87;72.20;100912.25;5023207;28;20031;-78
2022/04/13 00:18:58;;;;;;;9.02;3.42;;;;;;;12.80;72.00;100923.31;5026794;28;20412;-78
2022/04/13 00:21:24;;;;;;;16.85;3.85;;;;;;;12.76;72.37;100922.00;5041752;28;20130;-78
2022/04/13 00:23:49;;;;;;;15.00;4.15;;;;;;;12.72;72.95;100919.94;5022607;28;20048;-79
2022/04/13 00:26:15;;;;;;;10.23;3.65;;;;;;;12.69;72.82;100922.84;5026785;28;20047;-79
2022/04/13 00:28:41;;;;;;;11.52;3.55;;;;;;;12.66;73.20;100924.00;5043011;28;20085;-78
2022/04/13 00:31:07;;;;;;;7.45;3.58;;;;;;;12.63;73.35;100935.53;5059479;28;20036;-78
2022/04/13 00:33:33;;;;;;;10.60;3.90;;;;;;;12.60;73.57;100925.50;5051270;28;20033;-78
2022/04/13 00:35:59;;;;;;;9.55;4.10;;;;;;;12.59;73.82;100928.25;5049924;28;20490;-78
2022/04/13 00:38:24;;;;;;;13.02;4.28;;;;;;;12.54;74.19;100933.13;5031747;28;20039;-77
2022/04/13 00:40:50;;;;;;;8.68;3.70;;;;;;;12.53;74.52;100931.53;5064704;28;20033;-78
2022/04/13 00:43:16;;;;;;;11.13;3.75;;;;;;;12.51;74.44;100930.84;5048956;28;20497;-78
2022/04/13 00:45:46;;;;;;;10.35;4.05;;;;;;;12.48;74.59;100933.78;5047827;28;20517;-78
2022/04/13 00:48:25;;;;;;;12.02;3.95;;;;;;;12.45;74.71;100932.31;5030273;28;20335;-78
2022/04/13 00:50:51;;;;;;;10.38;3.78;;;;;;;12.42;74.70;100940.47;5063443;28;20485;-78
2022/04/13 00:53:18;;;;;;;12.45;3.35;;;;;;;12.39;74.75;100933.78;5068334;28;20035;-78
2022/04/13 00:55:45;;;;;;;9.00;3.60;;;;;;;12.36;74.93;100936.72;5026284;28;20672;-78
2022/04/13 00:58:14;;;;;;;6.55;3.55;;;;;;;12.31;74.82;100940.81;5040013;28;20409;-78
2022/04/13 01:00:48;;;;;;;7.93;4.38;;;;;;;12.30;75.42;100936.56;5047924;28;20441;-78
2022/04/13 01:03:24;;;;;;;14.63;3.97;;;;;;;12.30;75.13;100942.59;5063497;28;20396;-78
2022/04/13 01:05:52;;;;;;;7.93;3.67;;;;;;;12.29;75.09;100946.16;5064806;28;20040;-78
2022/04/13 01:08:19;;;;;;;11.70;3.80;;;;;;;12.27;75.50;100945.50;5043352;28;20649;-78
2022/04/13 01:10:49;;;;;;;8.35;3.90;;;;;;;12.26;75.98;100949.91;5048140;28;20036;-78
2022/04/13 01:13:15;;;;;;;7.47;4.10;;;;;;;12.25;76.46;100948.28;5066404;28;20074;-78
2022/04/13 01:15:41;;;;;;;7.85;4.07;;;;;;;12.23;76.34;100955.44;5050924;28;20036;-78
2022/04/13 01:18:07;;;;;;;13.88;4.78;;;;;;;12.21;76.29;100957.38;5052653;28;20042;-78
2022/04/13 01:20:34;;;;;;;10.57;3.90;;;;;;;12.20;76.20;100958.34;5061495;28;20071;-78
2022/04/13 01:23:00;;;;;;;14.00;3.95;;;;;;;12.19;75.98;100958.53;5045992;28;20078;-78
2022/04/13 01:25:26;;;;;;;7.65;3.60;;;;;;;12.17;76.04;100963.88;5027387;28;20241;-78
2022/04/13 01:27:51;;;;;;;11.18;4.25;;;;;;;12.15;76.50;100959.81;5043012;28;20032;-78
2022/04/13 01:30:17;;;;;;;9.52;3.60;;;;;;;12.13;76.58;100964.34;5043338;28;20032;-78
2022/04/13 01:32:42;;;;;;;8.75;3.45;;;;;;;12.11;76.54;100971.50;5047397;28;20032;-78
2022/04/13 01:35:08;;;;;;;6.50;3.83;;;;;;;12.07;76.83;100976.19;5061736;28;20078;-78
2022/04/13 01:37:34;;;;;;;11.68;4.25;;;;;;;12.02;76.90;100968.09;5042736;28;20456;-78
2022/04/13 01:40:00;;;;;;;8.07;3.92;;;;;;;11.99;77.13;100979.59;5033658;28;20122;-78
2022/04/13 01:42:26;;;;;;;12.85;4.60;;;;;;;11.93;77.02;100977.66;5041282;28;20037;-78
2022/04/13 01:44:52;;;;;;;9.07;4.05;;;;;;;11.92;76.85;100983.81;5029056;28;20710;-78
2022/04/13 01:47:17;;;;;;;9.85;3.85;;;;;;;11.91;76.94;100979.59;5023742;28;20032;-78
2022/04/13 01:49:43;;;;;;;8.93;3.85;;;;;;;11.86;76.77;100981.84;5039596;28;20033;-78
2022/04/13 01:52:10;;;;;;;11.80;4.25;;;;;;;11.82;76.54;100983.13;5041549;28;20043;-78
2022/04/13 01:54:36;;;;;;;10.10;4.22;;;;;;;11.76;76.47;100994.97;5023313;28;20043;-78
2022/04/13 01:57:03;;;;;;;13.77;4.20;;;;;;;11.72;76.42;100985.06;5027445;28;20029;-78
2022/04/13 01:59:28;;;;;;;17.63;5.38;;;;;;;11.66;76.84;100982.13;5042310;28;20040;-78
2022/04/13 02:01:54;;;;;;;9.43;3.90;;;;;;;11.63;77.02;100986.81;5058292;28;20031;-78
2022/04/13 02:04:25;;;;;;;9.32;4.07;;;;;;;11.58;77.36;100996.88;5042315;28;20028;-78
2022/04/13 02:06:51;;;;;;;9.15;4.22;;;;;;;11.48;77.70;100997.81;5026463;28;21553;-78
2022/04/13 02:09:18;;;;;;;10.13;4.43;;;;;;;11.42;78.20;100997.63;5025859;28;20124;-77
2022/04/13 02:11:45;;;;;;;9.70;3.50;;;;;;;11.39;77.68;101003.94;5047649;28;20039;-77
2022/04/13 02:14:11;;;;;;;7.38;4.30;;;;;;;11.36;77.91;101001.66;5044003;28;20102;-78
2022/04/13 02:16:37;;;;;;;8.07;3.72;;;;;;;11.29;78.34;101006.66;5043227;28;20032;-77
2022/04/13 02:19:03;;;;;;;11.70;3.65;;;;;;;11.23;78.57;101012.47;5037739;28;20041;-78
2022/04/13 02:21:30;;;;;;;9.95;3.85;;;;;;;11.19;79.02;101018.94;5040532;28;20447;-78
2022/04/13 02:23:56;;;;;;;10.65;3.55;;;;;;;11.25;78.36;101012.31;5041710;28;20039;-78
2022/04/13 02:26:22;;;;;;;10.43;3.78;;;;;;;11.19;78.26;101012.91;5040459;28;20033;-78
2022/04/13 02:28:49;;;;;;;11.68;4.38;;;;;;;11.19;78.51;101012.91;5040120;28;20548;-78
2022/04/13 02:31:14;;;;;;;9.20;3.70;;;;;;;11.17;78.60;101014.88;5039167;28;20025;-78
2022/04/13 02:33:40;;;;;;;11.40;3.92;;;;;;;11.14;78.84;101005.63;5040254;28;20468;-78
2022/04/13 02:36:06;;;;;;;11.27;3.88;;;;;;;11.12;78.78;101017.13;5059642;28;20035;-78
2022/04/13 02:38:32;;;;;;;9.23;3.45;;;;;;;11.09;79.04;101015.63;5025240;28;20032;-78
2022/04/13 02:40:57;;;;;;;8.27;4.18;;;;;;;11.06;79.15;101015.97;5056126;28;20032;-78
2022/04/13 02:43:24;;;;;;;8.45;3.80;;;;;;;11.04;79.03;101023.91;5041612;28;20040;-78
2022/04/13 02:45:50;;;;;;;12.52;4.38;;;;;;;11.01;79.51;101020.78;5040342;28;20812;-78
2022/04/13 02:48:16;;;;;;;11.25;3.92;;;;;;;11.01;79.62;101031.97;5035659;28;20037;-78
2022/04/13 02:50:42;;;;;;;8.90;4.05;;;;;;;10.98;79.72;101032.31;5057411;28;20047;-77
2022/04/13 02:53:07;;;;;;;10.02;3.88;;;;;;;10.98;79.69;101034.06;5024299;28;20042;-78
2022/04/13 02:55:33;;;;;;;12.20;4.00;;;;;;;10.98;79.92;101034.06;5057333;28;20033;-77
2022/04/13 02:57:59;;;;;;;10.35;3.63;;;;;;;11.01;79.49;101037.16;5037072;28;20477;-78
2022/04/13 03:00:24;;;;;;;10.25;3.78;;;;;;;11.01;79.21;101039.75;5043249;28;20032;-78
2022/04/13 03:02:50;;;;;;;8.82;3.35;;;;;;;11.02;79.46;101044.00;5021716;28;20051;-77
2022/04/13 03:05:15;;;;;;;13.48;4.00;;;;;;;11.01;79.77;101046.75;5042019;28;20123;-78
2022/04/13 03:07:40;;;;;;;15.02;3.70;;;;;;;11.01;79.48;101044.16;5040246;28;20039;-78
2022/04/13 03:10:07;;;;;;;10.18;3.30;;;;;;;10.99;79.85;101051.28;5060837;28;20628;-77
2022/04/13 03:12:33;;;;;;;9.63;3.22;;;;;;;11.00;79.82;101052.88;5042519;28;20028;-77
2022/04/13 03:15:01;;;;;;;11.20;3.65;;;;;;;11.02;79.55;101056.13;5039769;28;20039;-77
2022/04/13 03:17:27;;;;;;;10.75;3.35;;;;;;;11.02;79.43;101049.19;5041979;28;20040;-78
2022/04/13 03:19:52;;;;;;;11.02;3.80;;;;;;;11.04;79.65;101051.63;5040761;28;20043;-77
2022/04/13 03:22:22;;;;;;;13.07;3.85;;;;;;;11.05;79.76;101051.47;5023166;28;20389;-78
2022/04/13 03:24:47;;;;;;;15.13;3.97;;;;;;;11.06;79.75;101053.09;5039486;28;20389;-78
2022/04/13 03:27:13;;;;;;;11.57;3.42;;;;;;;11.07;79.82;101059.91;5042777;28;20048;-78
2022/04/13 03:29:38;;;;;;;9.52;2.85;;;;;;;11.09;79.93;101059.75;5040735;28;20036;-77
2022/04/13 03:32:04;;;;;;;13.65;3.65;;;;;;;11.10;80.00;101067.41;5038069;28;20066;-77
2022/04/13 03:34:30;;;;;;;8.05;3.00;;;;;;;11.11;80.02;101065.59;5039557;28;20036;-77
2022/04/13 03:36:55;;;;;;;17.10;3.00;;;;;;;11.10;80.44;101064.00;5056256;28;20031;-77
2022/04/13 03:39:21;;;;;;;10.55;3.00;;;;;;;11.09;80.86;101065.78;5023701;28;20044;-77
2022/04/13 03:41:46;;;;;;;17.45;3.20;;;;;;;11.08;80.66;101058.94;5054313;28;20048;-78
2022/04/13 03:44:12;;;;;;;12.13;3.08;;;;;;;11.09;80.53;101063.19;5041570;28;20029;-78
2022/04/13 03:46:37;;;;;;;12.27;3.10;;;;;;;11.13;80.84;101073.25;5037448;28;20041;-78
2022/04/13 03:49:03;;;;;;;8.60;3.45;;;;;;;11.12;81.03;101072.44;5037733;28;20041;-78
2022/04/13 03:51:28;;;;;;;12.90;2.78;;;;;;;11.13;80.67;101068.84;5040619;28;20040;-77
2022/04/13 03:53:54;;;;;;;10.35;2.83;;;;;;;11.12;81.33;101074.22;5056945;28;20066;-77
2022/04/13 03:56:19;;;;;;;9.20;4.32;;;;;;;11.13;81.15;101070.66;5040551;28;20029;-78
2022/04/13 03:58:45;;;;;;;11.85;3.28;;;;;;;11.12;81.54;101076.81;5024030;28;20020;-78
2022/04/13 04:01:11;;;;;;;9.85;2.95;;;;;;;11.09;81.78;101072.72;5041851;28;20548;-77
2022/04/13 04:03:37;;;;;;;7.28;2.75;;;;;;;11.10;81.64;101079.56;5042264;28;20037;-78
2022/04/13 04:06:03;;;;;;;10.38;3.13;;;;;;;11.11;81.62;101073.38;5045259;28;20036;-78
2022/04/13 04:08:29;;;;;;;7.28;3.03;;;;;;;11.11;81.64;101078.56;5044258;28;20123;-78
2022/04/13 04:10:55;;;;;;;7.60;3.05;;;;;;;11.08;81.47;101082.31;5041640;28;20033;-77
2022/04/13 04:13:21;;;;;;;7.55;3.22;;;;;;;11.01;81.96;101076.09;5043810;28;20033;-78
2022/04/13 04:15:46;;;;;;;8.85;3.38;;;;;;;10.95;82.21;101083.69;5061348;28;20599;-78
2022/04/13 04:18:12;;;;;;;7.90;3.65;;;;;;;10.87;82.50;101082.66;5027401;28;20397;-78
2022/04/13 04:20:37;;;;;;;8.40;3.13;;;;;;;10.86;82.77;101091.38;5060449;28;20037;-77
2022/04/13 04:23:03;;;;;;;9.15;3.05;;;;;;;10.85;82.58;101084.59;5042098;28;20036;-78
2022/04/13 04:25:29;;;;;;;7.53;3.30;;;;;;;10.87;82.43;101093.03;5025614;28;20460;-77
2022/04/13 04:27:54;;;;;;;11.35;3.17;;;;;;;10.87;82.44;101094.81;5026826;28;20060;-78
2022/04/13 04:30:20;;;;;;;13.13;3.85;;;;;;;10.87;82.77;101093.03;5045623;28;20457;-77
2022/04/13 04:32:45;;;;;;;11.60;3.90;;;;;;;10.88;82.27;101096.44;5046168;28;20022;-77
2022/04/13 04:35:11;;;;;;;18.80;4.18;;;;;;;10.91;82.13;101089.16;5043426;28;20035;-77
2022/04/13 04:37:37;;;;;;;8.77;3.63;;;;;;;10.92;82.01;101097.75;5045341;28;20043;-78
2022/04/13 04:40:03;;;;;;;9.55;3.55;;;;;;;10.89;81.76;101096.28;5060382;28;20047;-78
2022/04/13 04:42:28;;;;;;;11.30;3.72;;;;;;;10.86;82.03;101099.16;5041875;28;20067;-78
2022/04/13 04:44:56;;;;;;;12.10;3.47;;;;;;;10.82;81.97;101097.84;5041954;28;20036;-78
2022/04/13 04:47:21;;;;;;;16.17;4.20;;;;;;;10.82;82.30;101107.41;5025825;28;20045;-78
2022/04/13 04:49:47;;;;;;;12.07;3.30;;;;;;;10.80;82.16;101104.97;5043875;28;20043;-77
2022/04/13 04:52:12;;;;;;;10.23;3.50;;;;;;;10.79;82.41;101110.28;5044697;28;20032;-77
2022/04/13 04:54:38;;;;;;;11.95;4.15;;;;;;;10.78;82.54;101109.47;5047207;28;20553;-77
2022/04/13 04:57:03;;;;;;;8.30;2.85;;;;;;;10.79;82.45;101118.88;5044028;28;20459;-78
2022/04/13 04:59:28;;;;;;;10.38;3.40;;;;;;;10.79;82.38;101123.25;5044632;28;20112;-77
2022/04/13 05:01:54;;;;;;;13.35;4.55;;;;;;;10.78;82.68;101119.88;5045789;28;20036;-78
2022/04/13 05:04:19;;;;;;;11.27;3.97;;;;;;;10.78;82.74;101117.28;5060660;28;20044;-78
2022/04/13 05:06:45;;;;;;;9.55;3.53;;;;;;;10.78;82.93;101124.25;5044729;28;20040;-78
2022/04/13 05:09:10;;;;;;;9.02;3.83;;;;;;;10.78;82.90;101124.25;5044434;28;20408;-77
2022/04/13 05:11:36;;;;;;;14.20;3.78;;;;;;;10.80;82.96;101132.69;5045206;28;20044;-78
2022/04/13 05:14:01;;;;;;;7.00;4.00;;;;;;;10.79;82.74;101139.63;5043407;28;20040;-77
2022/04/13 05:16:27;;;;;;;10.05;3.42;;;;;;;10.80;82.75;101143.88;5061148;28;20060;-77
2022/04/13 05:18:52;;;;;;;16.15;4.13;;;;;;;10.81;82.69;101142.91;5027168;28;20551;-78
2022/04/13 05:21:17;;;;;;;11.95;3.58;;;;;;;10.81;82.66;101147.28;5028225;28;20037;-77
2022/04/13 05:23:43;;;;;;;8.48;3.50;;;;;;;10.78;82.77;101158.78;5027244;28;20067;-77
2022/04/13 05:26:09;;;;;;;11.20;4.00;;;;;;;10.77;82.90;101164.91;5061481;28;20036;-77
2022/04/13 05:28:35;;;;;;;7.28;3.78;;;;;;;10.78;83.44;101168.34;5044263;28;20409;-78
2022/04/13 05:31:00;;;;;;;11.25;3.40;;;;;;;10.78;83.34;101176.13;5041106;28;20041;-77
2022/04/13 05:33:26;;;;;;;10.80;4.03;;;;;;;10.79;83.40;101180.34;5041021;28;20032;-78
2022/04/13 05:35:51;;;;;;;11.18;3.45;;;;;;;10.77;83.56;101177.88;5056700;28;20677;-77
2022/04/13 05:38:17;;;;;;;8.65;3.08;;;;;;;10.77;83.70;101187.44;5028160;28;20028;-77
2022/04/13 05:40:42;;;;;;;11.07;3.22;;;;;;;10.80;83.85;101189.75;5058805;28;20032;-77
2022/04/13 05:43:08;;;;;;;19.60;3.25;;;;;;;10.80;83.73;101184.56;5027941;28;20036;-77
2022/04/13 05:45:33;;;;;;;8.13;3.33;;;;;;;10.83;83.81;101197.22;5061184;28;20028;-77
2022/04/13 05:47:59;;;;;;;9.75;3.05;;;;;;;10.83;83.55;101190.28;5042330;28;20025;-77
2022/04/13 05:50:25;;;;;;;12.93;3.42;;;;;;;10.85;83.52;101190.94;5026104;28;20044;-77
2022/04/13 05:52:50;;;;;;;10.45;2.90;;;;;;;10.87;83.83;101186.41;5056636;28;20102;-78
2022/04/13 05:55:16;;;;;;;21.23;4.03;;;;;;;10.90;83.68;101195.69;5040139;28;20032;-77
2022/04/13 05:57:41;;;;;;;13.65;4.22;;;;;;;10.95;84.07;101200.44;5045402;28;20032;-77
2022/04/13 06:00:10;;;;;;;16.25;4.63;;;;;;;11.01;83.88;101207.63;5045281;28;20032;-77
2022/04/13 06:02:36;;;;;;;12.70;3.53;;;;;;;11.05;84.01;101216.72;5042219;28;20036;-77
2022/04/13 06:05:03;;;;;;;19.63;4.93;;;;;;;11.09;84.04;101211.13;5040509;28;20044;-78
2022/04/13 06:07:29;;;;;;;12.30;3.60;;;;;;;11.11;84.33;101218.72;5026811;28;20025;-77
2022/04/13 06:09:54;;;;;;;10.27;4.22;;;;;;;11.18;84.24;101208.56;5027761;28;20032;-77
2022/04/13 06:12:23;;;;;;;14.75;4.30;;;;;;;11.25;84.09;101220.00;5023763;28;20028;-78
2022/04/13 06:14:50;;;;;;;15.00;4.47;;;;;;;11.32;83.89;101226.22;5036508;28;20755;-77
2022/04/13 06:17:16;;;;;;;11.20;4.50;;;;;;;11.39;83.81;101226.41;5017840;28;20040;-77
2022/04/13 06:19:42;;;;;;;9.25;3.47;;;;;;;11.46;83.62;101228.25;5039237;28;20029;-77
2022/04/13 06:22:08;;;;;;;16.02;4.18;;;;;;;11.56;83.17;101222.97;5040291;28;20052;-78
2022/04/13 06:24:33;;;;;;;14.07;4.65;;;;;;;11.71;83.39;101230.22;5025560;28;20035;-78
2022/04/13 06:26:59;;;;;;;21.17;5.03;;;;;;;11.78;83.26;101224.25;5037824;28;20522;-77
2022/04/13 06:29:24;;;;;;;18.08;5.35;;;;;;;11.87;83.22;101230.31;5029623;28;20464;-78
2022/04/13 06:31:49;;;;;;;15.48;5.25;;;;;;;12.00;82.97;101224.75;5044059;28;20044;-78
2022/04/13 06:34:16;;;;;;;15.70;5.18;;;;;;;12.12;83.03;101228.69;5042378;28;20041;-76
2022/04/13 06:36:42;;;;;;;16.50;5.38;;;;;;;12.22;82.72;101224.19;5042300;28;20507;-77
2022/04/13 06:39:07;;;;;;;11.77;4.63;;;;;;;12.36;82.06;101229.78;5044240;28;20036;-77
2022/04/13 06:41:33;;;;;;;14.68;5.00;;;;;;;12.52;81.32;101222.00;5044683;28;20374;-78
2022/04/13 06:43:59;;;;;;;17.85;5.60;;;;;;;12.69;80.68;101229.84;5030360;28;20036;-77
2022/04/13 06:46:25;;;;;;;13.63;5.20;;;;;;;12.90;79.42;101224.19;5061081;28;20402;-78
2022/04/13 06:48:50;;;;;;;15.25;8.05;;;;;;;13.07;78.80;101231.03;5042000;28;20077;-78
2022/04/13 06:51:15;;;;;;;15.85;6.57;;;;;;;13.31;77.64;101234.66;5026336;28;20109;-78
2022/04/13 06:53:41;;;;;;;16.52;5.85;;;;;;;13.57;75.82;101227.47;5037977;28;20609;-78
2022/04/13 06:56:06;;;;;;;11.38;4.95;;;;;;;13.79;74.38;101235.59;5032452;28;20035;-79
2022/04/13 06:58:32;;;;;;;14.02;5.68;;;;;;;14.05;73.82;101237.94;5030711;28;20028;-78
2022/04/13 07:00:57;;;;;;;13.55;5.75;;;;;;;14.30;73.46;101243.09;5028308;28;20546;-78
2022/04/13 07:03:26;;;;;;;14.32;5.28;;;;;;;14.45;72.24;101237.94;5043040;28;20084;-78
2022/04/13 07:05:51;;;;;;;11.07;5.22;;;;;;;14.76;71.23;101245.81;5046110;28;20036;-78
2022/04/13 07:08:17;;;;;;;14.52;4.90;;;;;;;15.09;70.25;101238.56;5031301;28;20033;-78
2022/04/13 07:10:42;;;;;;;13.57;4.57;;;;;;;15.24;69.15;101243.03;5045251;28;20039;-78
2022/04/13 07:13:10;;;;;;;18.42;5.40;;;;;;;15.08;69.09;101249.19;5043931;28;20040;-78
2022/04/13 07:15:36;;;;;;;11.00;5.75;;;;;;;15.04;68.71;101251.34;5043474;28;20396;-78
2022/04/13 07:18:01;;;;;;;14.82;6.00;;;;;;;15.40;67.74;101253.34;5029031;28;20028;-78
2022/04/13 07:20:27;;;;;;;15.70;5.68;;;;;;;15.87;66.89;101254.88;5044869;28;20028;-78
2022/04/13 07:22:53;;;;;;;18.70;4.75;;;;;;;16.39;65.14;101252.31;5046642;28;20024;-78
2022/04/13 07:25:20;;;;;;;13.13;5.40;;;;;;;16.74;63.90;101251.53;5043707;28;20056;-78
2022/04/13 07:27:47;;;;;;;10.10;4.82;;;;;;;17.14;62.58;101253.75;5038510;28;20068;-78
2022/04/13 07:30:13;;;;;;;11.75;5.22;;;;;;;17.34;61.77;101260.97;5041814;28;20028;-78
2022/04/13 07:32:40;;;;;;;11.65;4.80;;;;;;;17.71;60.96;101263.25;5037848;28;20029;-78
2022/04/13 07:35:06;;;;;;;12.73;4.93;;;;;;;18.07;59.38;101264.91;5025447;28;20066;-78
2022/04/13 07:37:31;;;;;;;14.43;5.70;;;;;;;18.45;58.73;101267.06;5046349;28;20035;-78
2022/04/13 07:39:58;;;;;;;19.23;4.93;;;;;;;18.79;57.32;101269.81;5042801;28;20036;-78
2022/04/13 07:42:26;;;;;;;13.68;4.57;;;;;;;19.00;56.41;101263.59;5045912;28;20801;-79
2022/04/13 07:44:53;;;;;;;18.83;5.95;;;;;;;19.09;55.41;101267.66;5046862;28;20033;-78
2022/04/13 07:47:21;;;;;;;12.55;4.38;;;;;;;19.30;55.78;101271.09;5032896;28;20037;-78
2022/04/13 07:49:50;;;;;;;13.85;4.55;;;;;;;19.62;54.86;101275.53;5034934;28;20603;-78
2022/04/13 07:52:16;;;;;;;16.27;4.55;;;;;;;19.90;54.63;101277.13;5031728;28;20044;-78
2022/04/13 07:54:44;;;;;;;15.65;4.80;;;;;;;20.08;54.09;101278.28;5044038;28;20127;-78
2022/04/13 07:57:10;;;;;;;15.63;5.70;;;;;;;20.05;53.43;101282.16;5048881;28;20718;-78
2022/04/13 07:59:36;;;;;;;15.27;4.95;;;;;;;19.95;53.46;101287.84;5048695;28;20043;-78
2022/04/13 08:02:02;;;;;;;19.17;4.88;;;;;;;19.97;54.22;101277.94;5028454;28;20032;-78
2022/04/13 08:04:28;;;;;;;8.57;3.88;;;;;;;20.26;53.80;101288.97;5045797;28;20041;-79
2022/04/13 08:06:53;;;;;;;10.63;3.78;;;;;;;20.50;53.21;101290.09;5049645;28;20040;-79
2022/04/13 08:09:19;;;;;;;11.73;4.43;;;;;;;20.42;53.39;101293.75;5046410;28;20040;-79
2022/04/13 08:11:45;;;;;;;16.85;5.32;;;;;;;20.77;53.06;101293.41;5034276;28;20059;-78
2022/04/13 08:14:11;;;;;;;16.38;4.40;;;;;;;20.75;51.67;101292.81;5045760;28;20036;-78
2022/04/13 08:16:37;;;;;;;12.50;3.70;;;;;;;21.05;52.10;101305.41;5065024;28;20374;-78
2022/04/13 08:19:02;;;;;;;12.13;4.03;;;;;;;21.34;51.92;101301.34;5049725;28;20044;-78
2022/04/13 08:21:28;;;;;;;17.50;4.50;;;;;;;20.98;52.65;101310.72;5068387;28;20028;-79
2022/04/13 08:23:53;;;;;;;8.80;2.80;;;;;;;21.25;52.17;101307.06;5048681;28;20032;-78
2022/04/13 08:26:19;;;;;;;20.85;4.20;;;;;;;21.30;51.87;101308.06;5046278;28;20731;-78
2022/04/13 08:28:44;;;;;;;12.88;3.28;;;;;;;21.53;50.96;101310.16;5050329;28;20029;-79
2022/04/13 08:31:10;;;;;;;18.48;4.80;;;;;;;21.82;50.98;101307.84;5042987;28;20033;-79
2022/04/13 08:33:38;;;;;;;10.98;3.53;;;;;;;22.03;49.78;101311.09;5045121;28;20278;-78
2022/04/13 08:36:03;;;;;;;11.38;3.25;;;;;;;22.17;49.13;101317.84;5030591;28;20543;-79
2022/04/13 08:38:29;;;;;;;24.10;5.43;;;;;;;21.68;49.65;101314.25;5031513;28;20012;-79
2022/04/13 08:41:00;;;;;;;15.80;4.05;;;;;;;21.71;50.66;101317.28;5044717;28;20093;-79
2022/04/13 08:43:38;;;;;;;16.13;3.83;;;;;;;21.45;51.42;101320.94;5063262;28;20701;-78
2022/04/13 08:46:09;;;;;;;14.23;3.90;;;;;;;21.43;51.31;101322.97;5060498;28;20029;-79
2022/04/13 08:48:39;;;;;;;11.48;3.60;;;;;;;21.44;52.21;101319.34;5025078;28;20119;-79
2022/04/13 08:51:09;;;;;;;7.68;2.85;;;;;;;21.07;52.55;101315.75;5046474;28;20493;-80
2022/04/13 08:53:37;;;;;;;456.23;28.20;;;;;;;20.52;54.49;101332.81;5064331;28;20056;-79
2022/04/13 08:56:03;;;;;;;57.15;6.55;;;;;;;19.73;56.07;101321.47;5046681;28;20037;-79
2022/04/13 08:59:04;;;;;;;35.10;4.22;;;;;;;19.47;57.27;101314.38;5047148;28;20032;-80
2022/04/13 09:01:56;;;;;;;197.55;12.10;;;;;;;19.68;57.60;101315.97;5063670;28;20552;-79
2022/04/13 09:04:26;;;;;;;10.50;3.58;;;;;;;19.81;57.64;101318.63;5026281;28;20106;-76
2022/04/13 09:06:55;;;;;;;10.70;3.17;;;;;;;20.69;55.73;101325.28;5063486;28;20039;-76
2022/04/13 09:09:30;;;;;;;7.57;3.00;;;;;;;21.10;53.70;101324.03;5024325;28;20243;-76
2022/04/13 09:11:57;;;;;;;9.35;2.83;;;;;;;20.87;53.53;101331.66;5023324;28;20032;-76
2022/04/13 09:14:23;;;;;;;11.13;2.70;;;;;;;20.39;55.17;101331.03;5025710;28;20056;-76
2022/04/13 09:16:50;;;;;;;14.80;2.85;;;;;;;20.39;56.53;101338.16;5025340;28;20033;-76
2022/04/13 09:19:17;;;;;;;8.23;2.78;;;;;;;20.58;55.86;101336.44;5037717;28;20481;-77
2022/04/13 09:21:44;;;;;;;12.82;3.28;;;;;;;20.72;55.35;101334.56;5026032;28;20102;-77
2022/04/13 09:24:11;;;;;;;10.10;2.78;;;;;;;20.63;55.09;101338.50;5060741;28;20040;-75
2022/04/13 09:26:38;;;;;;;8.35;2.55;;;;;;;20.64;54.44;101338.25;5042046;28;20063;-76
2022/04/13 09:29:03;;;;;;;7.75;3.60;;;;;;;20.64;54.33;101345.38;5042013;28;20068;-78
2022/04/13 09:31:30;;;;;;;17.35;2.90;;;;;;;20.88;52.97;101335.94;5044152;28;20040;-76
2022/04/13 09:33:56;;;;;;;15.73;4.03;;;;;;;20.74;54.23;101343.91;5060422;28;20040;-81
2022/04/13 09:36:21;;;;;;;10.00;4.10;;;;;;;20.71;53.67;101339.03;5058683;28;20040;-79
2022/04/13 09:38:47;;;;;;;9.88;2.80;;;;;;;21.03;53.68;101336.44;5060280;28;20024;-79
2022/04/13 09:41:12;;;;;;;13.05;3.42;;;;;;;21.20;50.96;101334.91;5043399;28;20036;-79
2022/04/13 09:43:38;;;;;;;14.68;3.28;;;;;;;21.21;53.26;101341.00;5044200;28;20421;-79
2022/04/13 09:46:04;;;;;;;12.13;3.38;;;;;;;21.09;53.07;101346.13;5047342;28;20552;-79
2022/04/13 09:48:30;;;;;;;9.50;3.70;;;;;;;21.05;53.80;101350.22;5064305;28;20036;-79
2022/04/13 09:51:00;;;;;;;18.77;3.90;;;;;;;21.30;54.09;101350.25;5045647;28;20073;-79
2022/04/13 09:53:26;;;;;;;13.30;3.60;;;;;;;21.49;54.25;101353.81;5062051;28;20029;-79
2022/04/13 09:55:59;;;;;;;7.78;3.45;;;;;;;21.87;52.88;101355.50;5046215;28;20501;-80
2022/04/13 09:58:26;;;;;;;;;;;;;;;21.88;51.81;101349.19;5046964;28;20097;-80
2022/04/13 10:00:54;;;;;;;14.35;3.67;;;;;;;21.89;51.78;101350.81;5046550;28;19920;-80
2022/04/13 10:03:22;;;;;;;11.27;4.07;;;;;;;22.02;51.05;101356.97;5044707;28;20035;-79
2022/04/13 10:05:56;;;;;;;10.93;3.75;;;;;;;21.74;51.02;101348.53;5027664;28;20648;-79
2022/04/13 10:08:23;;;;;;;11.93;4.38;;;;;;;21.41;52.55;101348.75;5029290;28;20033;-80
2022/04/13 10:10:57;;;;;;;18.13;4.03;;;;;;;21.50;53.71;101349.34;5044544;28;20017;-77
2022/04/13 10:13:32;;;;;;;12.65;3.75;;;;;;;21.89;54.36;101352.66;5044739;28;20477;-79
2022/04/13 10:16:00;;;;;;;15.73;4.25;;;;;;;22.00;53.92;101348.47;5041352;28;20032;-78
2022/04/13 10:18:27;;;;;;;13.40;3.92;;;;;;;21.83;53.49;101354.34;5042482;28;20421;-79
2022/04/13 10:20:53;;;;;;;13.30;3.90;;;;;;;21.32;52.21;101357.94;5064435;28;20459;-80
2022/04/13 10:23:18;;;;;;;10.02;3.55;;;;;;;21.19;53.81;101353.56;5042972;28;20043;-80
2022/04/13 10:25:44;;;;;;;12.32;4.00;;;;;;;21.34;53.77;101364.66;5049960;28;20047;-79
2022/04/13 10:28:13;;;;;;;10.18;3.70;;;;;;;21.17;54.06;101353.81;5041310;28;20162;-80
2022/04/13 10:30:41;;;;;;;12.85;2.90;;;;;;;21.11;54.16;101354.63;5030779;28;20029;-80
2022/04/13 10:33:12;;;;;;;9.30;2.88;;;;;;;21.01;53.47;101362.22;5041754;28;20051;-79
2022/04/13 10:35:42;;;;;;;12.50;2.70;;;;;;;21.05;53.15;101359.97;5043555;28;20033;-80
2022/04/13 10:38:09;;;;;;;10.30;2.50;;;;;;;21.16;52.14;101360.09;5028181;28;20421;-80
2022/04/13 10:40:40;;;;;;;8.43;2.88;;;;;;;20.99;53.04;101365.06;5046625;28;20051;-80
2022/04/13 10:43:09;;;;;;;8.85;3.15;;;;;;;21.25;53.04;101362.47;5031082;28;20037;-80
2022/04/13 10:45:38;;;;;;;13.15;3.10;;;;;;;21.32;52.16;101364.06;5065554;28;20580;-79
2022/04/13 10:48:06;;;;;;;8.20;2.78;;;;;;;21.23;52.81;101360.06;5027957;28;20037;-81
2022/04/13 10:50:36;;;;;;;7.55;2.42;;;;;;;21.50;52.34;101359.88;5031108;28;20119;-80
2022/04/13 10:53:25;;;;;;;8.27;3.53;;;;;;;21.43;52.78;101357.25;5034585;28;20552;-80
2022/04/13 10:55:53;;;;;;;6.70;2.40;;;;;;;21.57;51.87;101366.72;5067889;28;20039;-80
2022/04/13 10:58:28;;;;;;;8.73;2.58;;;;;;;21.42;51.67;101371.47;5048849;28;20043;-80
2022/04/13 11:01:03;;;;;;;6.60;2.40;;;;;;;21.63;51.55;101369.53;5048841;28;20043;-80
2022/04/13 11:03:32;;;;;;;9.27;2.63;;;;;;;21.82;50.98;101368.53;5030292;28;20039;-80
2022/04/13 11:05:57;;;;;;;8.38;2.67;;;;;;;21.79;50.59;101376.88;5062081;28;20031;-80
2022/04/13 11:08:57;;;;;;;11.35;2.47;;;;;;;21.62;51.04;101379.25;5043978;28;20232;-80
2022/04/13 11:11:26;;;;;;;8.75;2.20;;;;;;;21.66;51.05;101375.19;5044611;28;20501;-80
2022/04/13 11:13:52;;;;;;;13.13;2.17;;;;;;;21.53;50.77;101376.09;5046665;28;20056;-81
2022/04/13 11:16:19;;;;;;;13.95;2.70;;;;;;;21.64;51.29;101371.94;5046234;28;20028;-80
2022/04/13 11:19:06;;;;;;;9.68;2.80;;;;;;;21.50;51.12;101368.59;5043483;28;21334;-81